createdAt,value
2023-01-02T00:01:45.662Z,10.7
2023-01-02T00:04:47.633Z,11.9
2023-01-02T00:07:49.627Z,12.5
2023-01-02T00:10:52.989Z,8.4
2023-01-02T00:13:53.603Z,7.8
2023-01-02T00:16:55.539Z,8.4
2023-01-02T00:19:57.477Z,8
2023-01-02T00:22:59.431Z,7.4
2023-01-02T00:26:01.397Z,8.7
2023-01-02T00:29:03.344Z,8.5
2023-01-02T00:32:05.285Z,7.7
2023-01-02T00:35:07.294Z,6
2023-01-02T00:38:09.228Z,10.7
2023-01-02T00:41:11.179Z,7.8
2023-01-02T00:44:13.126Z,9.4
2023-01-02T00:47:15.104Z,9.9
2023-01-02T00:50:17.143Z,7.8
2023-01-02T00:53:19.050Z,5.2
2023-01-02T00:56:21.216Z,5.7
2023-01-02T00:59:22.973Z,8.1
2023-01-02T01:02:25.015Z,8.8
2023-01-02T01:05:26.864Z,9.7
2023-01-02T01:08:28.833Z,8.4
2023-01-02T01:11:30.784Z,8.2
2023-01-02T01:14:32.747Z,9.3
2023-01-02T01:17:34.733Z,8
2023-01-02T01:20:36.683Z,6.8
2023-01-02T01:23:38.692Z,9.8
2023-01-02T01:26:40.641Z,6.8
2023-01-02T01:29:42.573Z,6
2023-01-02T01:32:44.519Z,9.3
2023-01-02T01:35:46.469Z,6.3
2023-01-02T01:38:48.443Z,7.4
2023-01-02T01:41:50.433Z,6.1
2023-01-02T01:44:52.386Z,9.1
2023-01-02T01:47:54.332Z,9.3
2023-01-02T01:50:56.294Z,8.3
2023-01-02T01:53:58.215Z,5.2
2023-01-02T01:57:00.160Z,6.4
2023-01-02T02:00:02.200Z,6.5
2023-01-02T02:03:04.250Z,7.6
2023-01-02T02:06:06.123Z,6.8
2023-01-02T02:09:08.100Z,7.3
2023-01-02T02:12:10.030Z,4.8
2023-01-02T02:15:11.998Z,6
2023-01-02T02:18:13.955Z,8.8
2023-01-02T02:21:15.905Z,6.9
2023-01-02T02:24:17.856Z,7.1
2023-01-02T02:27:19.827Z,7.9
2023-01-02T02:30:21.910Z,5.2
2023-01-02T02:33:23.792Z,6.6
2023-01-02T02:36:25.727Z,6.9
2023-01-02T02:39:27.722Z,5.6
2023-01-02T02:42:29.731Z,6.7
2023-01-02T02:45:31.671Z,8.5
2023-01-02T02:48:33.666Z,7.1
2023-01-02T02:51:35.608Z,7.2
2023-01-02T02:54:37.616Z,4.8
2023-01-02T02:57:39.602Z,6.1
2023-01-02T03:00:41.480Z,6.2
2023-01-02T03:03:43.553Z,7.9
2023-01-02T03:06:45.434Z,8.6
2023-01-02T03:09:47.391Z,6.8
2023-01-02T03:12:49.325Z,10.4
2023-01-02T03:15:51.450Z,6.2
2023-01-02T03:18:53.256Z,10.1
2023-01-02T03:21:55.225Z,7.2
2023-01-02T03:24:57.130Z,5.1
2023-01-02T03:27:59.086Z,8.5
2023-01-02T03:31:01.070Z,8.4
2023-01-02T03:34:02.988Z,6.5
2023-01-02T03:37:04.958Z,8
2023-01-02T03:40:06.901Z,5.9
2023-01-02T03:43:08.837Z,9
2023-01-02T03:46:10.818Z,6.5
2023-01-02T03:49:12.781Z,7.2
2023-01-02T03:52:14.689Z,7.4
2023-01-02T03:55:16.637Z,6.3
2023-01-02T03:58:18.592Z,5.4
2023-01-02T04:01:20.616Z,7.7
2023-01-02T04:04:22.560Z,6.2
2023-01-02T04:07:24.481Z,7.3
2023-01-02T04:10:26.514Z,7.3
2023-01-02T04:13:28.410Z,8.2
2023-01-02T04:16:30.337Z,4.9
2023-01-02T04:19:32.335Z,8.4
2023-01-02T04:22:34.254Z,6
2023-01-02T04:25:36.246Z,6.6
2023-01-02T04:28:38.180Z,5
2023-01-02T04:31:40.120Z,7.3
2023-01-02T04:34:42.094Z,4.7
2023-01-02T04:37:44.065Z,5.2
2023-01-02T04:40:46.047Z,5.5
2023-01-02T04:43:47.973Z,6.2
2023-01-02T04:46:49.955Z,7.7
2023-01-02T04:49:51.923Z,5.9
2023-01-02T04:52:53.943Z,5.3
2023-01-02T04:55:55.849Z,6.1
2023-01-02T04:58:57.806Z,4.2
2023-01-02T05:01:59.836Z,7.3
2023-01-02T05:05:01.757Z,6.8
2023-01-02T05:08:03.696Z,9
2023-01-02T05:11:05.640Z,5.7
2023-01-02T05:14:08.067Z,4.5
2023-01-02T05:17:09.590Z,6.4
2023-01-02T05:20:11.554Z,6.5
2023-01-02T05:23:13.526Z,4.9
2023-01-02T05:26:15.475Z,5.7
2023-01-02T05:29:17.440Z,6.3
2023-01-02T05:32:19.393Z,4.3
2023-01-02T05:35:22.809Z,7.2
2023-01-02T05:38:23.343Z,7.9
2023-01-02T05:41:25.362Z,4.8
2023-01-02T05:44:27.361Z,5.6
2023-01-02T05:47:29.357Z,4.2
2023-01-02T05:50:31.317Z,6.1
2023-01-02T05:53:33.278Z,6
2023-01-02T05:56:35.225Z,9.2
2023-01-02T05:59:37.155Z,9.1
2023-01-02T06:02:39.225Z,6.7
2023-01-02T06:05:41.075Z,5.2
2023-01-02T06:08:43.040Z,6.2
2023-01-02T06:11:45.030Z,7.4
2023-01-02T06:14:47.074Z,5.5
2023-01-02T06:17:48.982Z,5.9
2023-01-02T06:20:50.933Z,7.7
2023-01-02T06:23:52.928Z,6.5
2023-01-02T06:26:54.883Z,8.6
2023-01-02T06:29:56.823Z,7.7
2023-01-02T06:32:58.873Z,8.6
2023-01-02T06:36:00.796Z,7.7
2023-01-02T06:39:02.743Z,7
2023-01-02T06:42:04.724Z,7.6
2023-01-02T06:45:06.691Z,7.5
2023-01-02T06:48:08.639Z,6.6
2023-01-02T06:51:10.592Z,6.1
2023-01-02T06:54:12.568Z,6.1
2023-01-02T06:57:14.539Z,6.9
2023-01-02T07:00:16.581Z,7.1
2023-01-02T07:03:18.488Z,8.8
2023-01-02T07:06:20.444Z,6.4
2023-01-02T07:09:22.397Z,6.6
2023-01-02T07:12:24.363Z,6.1
2023-01-02T07:15:26.361Z,4.9
2023-01-02T07:18:28.301Z,6.4
2023-01-02T07:21:30.315Z,5.7
2023-01-02T07:24:32.260Z,6.8
2023-01-02T07:27:34.215Z,5.6
2023-01-02T07:30:36.192Z,7
2023-01-02T07:33:38.148Z,7.4
2023-01-02T07:36:40.129Z,5.9
2023-01-02T07:39:42.069Z,5.4
2023-01-02T07:42:44.064Z,4.3
2023-01-02T07:45:49.917Z,7.3
2023-01-02T07:48:47.971Z,5.4
2023-01-02T07:51:50.032Z,6
2023-01-02T07:54:51.919Z,8.7
2023-01-02T07:57:53.900Z,4
2023-01-02T08:00:59.875Z,6.3
2023-01-02T08:03:57.859Z,3.8
2023-01-02T08:06:59.788Z,6.2
2023-01-02T08:10:01.756Z,9.6
2023-01-02T08:13:03.700Z,9.3
2023-01-02T08:16:05.663Z,6.5
2023-01-02T08:19:07.625Z,6.7
2023-01-02T08:22:09.583Z,6.4
2023-01-02T08:25:11.576Z,6.5
2023-01-02T08:28:13.534Z,6.9
2023-01-02T08:31:15.600Z,5.9
2023-01-02T08:34:17.474Z,9
2023-01-02T08:37:19.460Z,7.6
2023-01-02T08:40:21.555Z,7.2
2023-01-02T08:43:23.383Z,5
2023-01-02T08:46:25.418Z,7.5
2023-01-02T08:49:27.350Z,8.8
2023-01-02T08:52:29.309Z,5.8
2023-01-02T08:55:31.238Z,10.1
2023-01-02T08:58:33.202Z,6.9
2023-01-02T09:01:35.356Z,7.9
2023-01-02T09:04:37.126Z,6.9
2023-01-02T09:07:39.200Z,9.1
2023-01-02T09:10:41.225Z,4.8
2023-01-02T09:13:43.225Z,13.2
2023-01-02T09:16:45.145Z,6.5
2023-01-02T09:19:47.138Z,8.4
2023-01-02T09:22:49.639Z,8
2023-01-02T09:26:13.285Z,7.1
2023-01-02T09:28:57.490Z,5.7
2023-01-02T09:31:59.444Z,7.4
2023-01-02T09:35:01.393Z,12.3
2023-01-02T09:38:03.391Z,6.5
2023-01-02T09:41:05.334Z,9.3
2023-01-02T09:44:07.297Z,8.5
2023-01-02T09:47:09.292Z,7.9
2023-01-02T09:50:11.245Z,10.7
2023-01-02T09:53:13.200Z,11.3
2023-01-02T09:56:19.385Z,10.2
2023-01-02T09:59:17.127Z,6.8
2023-01-02T10:02:19.128Z,9
2023-01-02T10:05:21.070Z,9.2
2023-01-02T10:08:27.870Z,7.1
2023-01-02T10:11:25.042Z,5.8
2023-01-02T10:14:34.952Z,8.2
2023-01-02T10:17:28.950Z,6.2
2023-01-02T10:20:30.889Z,8.2
2023-01-02T10:23:32.854Z,12.9
2023-01-02T10:26:34.815Z,11.2
2023-01-02T10:29:36.773Z,9
2023-01-02T10:32:38.774Z,10.3
2023-01-02T10:35:40.729Z,6.5
2023-01-02T10:38:42.694Z,9.7
2023-01-02T10:41:44.664Z,8.9
2023-01-02T10:44:46.606Z,9.8
2023-01-02T10:47:48.617Z,15.1
2023-01-02T10:50:50.578Z,7.8
2023-01-02T10:53:52.535Z,7.4
2023-01-02T10:56:54.527Z,10.8
2023-01-02T10:59:56.465Z,10.8
2023-01-02T11:02:58.418Z,12.9
2023-01-02T11:06:15.899Z,10.3
2023-01-02T11:09:02.312Z,9.4
2023-01-02T11:12:04.267Z,7.7
2023-01-02T11:15:06.243Z,10.2
2023-01-02T11:18:08.224Z,10.4
2023-01-02T11:21:10.164Z,9.8
2023-01-02T11:24:12.128Z,7.9
2023-01-02T11:27:14.085Z,8.4
2023-01-02T11:30:16.053Z,7.3
2023-01-02T11:33:18.028Z,10.6
2023-01-02T11:36:20.017Z,11.9
2023-01-02T11:39:21.977Z,8.2
2023-01-02T11:42:23.942Z,7.8
2023-01-02T11:45:25.971Z,9.3
2023-01-02T11:48:27.886Z,11.5
2023-01-02T11:51:29.838Z,8.4
2023-01-02T11:54:31.800Z,11
2023-01-02T11:57:33.779Z,9.3
2023-01-02T12:00:35.732Z,9
2023-01-02T12:03:37.710Z,10.5
2023-01-02T12:06:39.675Z,9.9
2023-01-02T12:09:41.610Z,9.5
2023-01-02T12:12:43.770Z,7.9
2023-01-02T12:15:45.562Z,9.1
2023-01-02T12:18:47.555Z,8.9
2023-01-02T12:21:49.476Z,12.8
2023-01-02T12:24:51.440Z,12.6
2023-01-02T12:27:53.399Z,9.1
2023-01-02T12:30:55.354Z,9.7
2023-01-02T12:33:57.331Z,8.3
2023-01-02T12:36:59.310Z,6.6
2023-01-02T12:40:01.267Z,8.2
2023-01-02T12:43:03.208Z,7.5
2023-01-02T12:46:05.246Z,9.9
2023-01-02T12:49:07.143Z,11.3
2023-01-02T12:52:09.192Z,6.4
2023-01-02T12:55:11.098Z,8.7
2023-01-02T12:58:13.067Z,10.1
2023-01-02T13:01:15.191Z,11.3
2023-01-02T13:04:16.972Z,8.6
2023-01-02T13:07:18.930Z,10.7
2023-01-02T13:10:20.926Z,8.3
2023-01-02T13:13:22.872Z,8.2
2023-01-02T13:16:25.794Z,7
2023-01-02T13:19:26.878Z,7.4
2023-01-02T13:22:28.843Z,10
2023-01-02T13:25:30.782Z,8.7
2023-01-02T13:28:32.741Z,7.9
2023-01-02T13:31:47.904Z,8.8
2023-01-02T13:34:36.663Z,8.7
2023-01-02T13:37:38.659Z,9.7
2023-01-02T13:40:40.623Z,8.1
2023-01-02T13:43:42.583Z,10.9
2023-01-02T13:47:03.838Z,7
2023-01-02T13:49:46.527Z,8.1
2023-01-02T13:52:48.495Z,11.8
2023-01-02T13:55:50.447Z,8.8
2023-01-02T13:58:52.417Z,10.1
2023-01-02T14:01:54.427Z,11.2
2023-01-02T14:04:56.337Z,10
2023-01-02T14:07:58.335Z,8.4
2023-01-02T14:11:00.313Z,8.7
2023-01-02T14:14:02.244Z,7.9
2023-01-02T14:17:04.208Z,9.4
2023-01-02T14:20:06.168Z,12.3
2023-01-02T14:23:08.131Z,8.4
2023-01-02T14:26:10.117Z,9
2023-01-02T14:29:12.081Z,11
2023-01-02T14:32:14.054Z,8.3
2023-01-02T14:35:16.005Z,6.7
2023-01-02T14:38:17.984Z,9.6
2023-01-02T14:41:19.942Z,7
2023-01-02T14:44:22.133Z,9.1
2023-01-02T14:47:23.881Z,7.2
2023-01-02T14:50:25.842Z,8.1
2023-01-02T14:53:27.810Z,9.6
2023-01-02T14:56:29.814Z,9.5
2023-01-02T14:59:31.734Z,13
2023-01-02T15:02:33.869Z,10.2
2023-01-02T15:05:35.708Z,6.6
2023-01-02T15:08:37.679Z,8
2023-01-02T15:11:39.635Z,9.3
2023-01-02T15:14:41.565Z,11
2023-01-02T15:17:43.536Z,10.5
2023-01-02T15:20:45.500Z,10.7
2023-01-02T15:23:47.452Z,6.9
2023-01-02T15:26:49.430Z,7.2
2023-01-02T15:29:51.385Z,7.1
2023-01-02T15:32:53.348Z,7
2023-01-02T15:35:55.315Z,5.3
2023-01-02T15:38:57.274Z,4.7
2023-01-02T15:41:59.268Z,4.2
2023-01-02T15:45:01.227Z,5.7
2023-01-02T15:48:03.179Z,3
2023-01-02T15:51:05.182Z,2.7
2023-01-02T15:54:07.092Z,3.5
2023-01-02T15:57:09.060Z,3.2
2023-01-02T16:00:11.036Z,3.8
2023-01-02T16:03:13.034Z,4.8
2023-01-02T16:06:14.965Z,7.9
2023-01-02T16:09:16.909Z,9.1
2023-01-02T16:12:18.865Z,3.1
2023-01-02T16:15:20.849Z,5.6
2023-01-02T16:18:22.798Z,3.9
2023-01-02T16:21:24.791Z,4.7
2023-01-02T16:24:26.721Z,6.1
2023-01-02T16:27:28.677Z,7.4
2023-01-02T16:30:32.582Z,5.4
2023-01-02T16:33:32.614Z,5.6
2023-01-02T16:36:34.616Z,8.2
2023-01-02T16:39:36.524Z,7.4
2023-01-02T16:42:38.489Z,7.8
2023-01-02T16:45:40.467Z,6.8
2023-01-02T16:48:42.410Z,7.9
2023-01-02T16:51:44.380Z,7.3
2023-01-02T16:54:50.750Z,5.2
2023-01-02T16:57:48.327Z,5.1
2023-01-02T17:00:50.303Z,4.7
2023-01-02T17:03:52.265Z,8.2
2023-01-02T17:06:54.161Z,8
2023-01-02T17:09:56.129Z,8.2
2023-01-02T17:12:58.071Z,5.5
2023-01-02T17:16:00.158Z,7.5
2023-01-02T17:19:02.048Z,4.6
2023-01-02T17:22:04.009Z,6.9
2023-01-02T17:25:05.969Z,6.4
2023-01-02T17:28:07.902Z,7.6
2023-01-02T17:31:09.943Z,6
2023-01-02T17:34:11.828Z,5.7
2023-01-02T17:37:13.793Z,7.8
2023-01-02T17:40:15.751Z,6.4
2023-01-02T17:43:17.714Z,5.9
2023-01-02T17:46:49.058Z,5.7
2023-01-02T17:49:21.612Z,5.5
2023-01-02T17:52:23.615Z,4.8
2023-01-02T17:55:25.548Z,6.3
2023-01-02T17:58:27.503Z,5.8
2023-01-02T18:01:29.600Z,5.1
2023-01-02T18:04:31.498Z,6.2
2023-01-02T18:07:33.416Z,4
2023-01-02T18:10:35.409Z,5.2
2023-01-02T18:13:37.349Z,6.3
2023-01-02T18:16:39.402Z,4.6
2023-01-02T18:19:41.290Z,5.7
2023-01-02T18:22:48.756Z,4.8
2023-01-02T18:25:45.252Z,5.1
2023-01-02T18:28:47.262Z,3.3
2023-01-02T18:31:49.192Z,3.2
2023-01-02T18:34:56.078Z,2.2
2023-01-02T18:37:53.127Z,2.5
2023-01-02T18:40:55.214Z,3.7
2023-01-02T18:43:57.070Z,2.8
2023-01-02T18:47:02.436Z,3.7
2023-01-02T18:50:00.987Z,4.1
2023-01-02T18:53:02.989Z,2.7
2023-01-02T18:56:04.910Z,2.4
2023-01-02T18:59:06.910Z,3.6
2023-01-02T19:02:09.116Z,2.6
2023-01-02T19:05:10.827Z,2.4
2023-01-02T19:08:12.755Z,4
2023-01-02T19:11:14.756Z,4.8
2023-01-02T19:14:16.695Z,3.4
2023-01-02T19:17:18.654Z,3.2
2023-01-02T19:20:20.628Z,3.4
2023-01-02T19:23:22.754Z,2.4
2023-01-02T19:26:24.565Z,2.9
2023-01-02T19:29:26.561Z,1.9
2023-01-02T19:32:28.489Z,2.2
2023-01-02T19:35:30.454Z,2.8
2023-01-02T19:38:32.403Z,2.3
2023-01-02T19:41:34.428Z,2.4
2023-01-02T19:44:36.382Z,2.2
2023-01-02T19:47:38.348Z,1.5
2023-01-02T19:50:40.277Z,2.5
2023-01-02T19:53:42.271Z,3.4
2023-01-02T19:56:44.219Z,2.2
2023-01-02T19:59:46.197Z,2.5
2023-01-02T20:02:48.286Z,2.1
2023-01-02T20:05:50.078Z,2.1
2023-01-02T20:08:52.052Z,2.1
2023-01-02T20:11:54.001Z,1.8
2023-01-02T20:14:55.964Z,2.4
2023-01-02T20:17:57.922Z,2.4
2023-01-02T20:20:59.891Z,2.1
2023-01-02T20:24:01.880Z,3.6
2023-01-02T20:27:03.873Z,5
2023-01-02T20:30:05.879Z,3.3
2023-01-02T20:33:07.772Z,2.8
2023-01-02T20:36:13.515Z,2.3
2023-01-02T20:39:11.653Z,1.9
2023-01-02T20:42:13.902Z,1.9
2023-01-02T20:45:15.613Z,2.6
2023-01-02T20:48:17.588Z,2.4
2023-01-02T20:51:19.596Z,2.5
2023-01-02T20:54:21.558Z,1.7
2023-01-02T20:57:23.501Z,3.1
2023-01-02T21:00:25.478Z,2.1
2023-01-02T21:03:27.567Z,2.2
2023-01-02T21:06:29.427Z,2.5
2023-01-02T21:09:31.340Z,2.9
2023-01-02T21:12:33.362Z,2
2023-01-02T21:15:35.415Z,2.4
2023-01-02T21:18:37.260Z,1.8
2023-01-02T21:21:39.245Z,1.8
2023-01-02T21:24:41.229Z,2.3
2023-01-02T21:27:43.200Z,2.8
2023-01-02T21:30:45.159Z,2.1
2023-01-02T21:33:47.147Z,2.6
2023-01-02T21:36:49.075Z,2.4
2023-01-02T21:39:51.032Z,1.9
2023-01-02T21:42:52.988Z,2.6
2023-01-02T21:45:54.956Z,2.1
2023-01-02T21:48:56.935Z,2.4
2023-01-02T21:51:58.883Z,1.6
2023-01-02T21:55:00.852Z,1.4
2023-01-02T21:58:12.719Z,1.4
2023-01-02T22:01:04.836Z,1.9
2023-01-02T22:04:06.784Z,2.7
2023-01-02T22:07:32.420Z,2.6
2023-01-02T22:10:10.688Z,2.1
2023-01-02T22:13:12.663Z,2.9
2023-01-02T22:16:14.680Z,2.1
2023-01-02T22:19:16.633Z,3.3
2023-01-02T22:22:18.595Z,2.8
2023-01-02T22:25:20.528Z,1.7
2023-01-02T22:28:22.491Z,1.7
2023-01-02T22:31:24.523Z,2
2023-01-02T22:34:26.420Z,2
2023-01-02T22:37:28.437Z,1.3
2023-01-02T22:40:30.347Z,1.7
2023-01-02T22:43:32.351Z,1.9
2023-01-02T22:46:34.321Z,2.1
2023-01-02T22:49:36.289Z,2
2023-01-02T22:52:38.245Z,1.8
2023-01-02T22:55:40.208Z,1.9
2023-01-02T22:58:42.185Z,1.6
2023-01-02T23:01:44.183Z,2
2023-01-02T23:04:46.104Z,4
2023-01-02T23:07:48.084Z,3.4
2023-01-02T23:10:50.064Z,3.1
2023-01-02T23:13:56.462Z,2.5
2023-01-02T23:16:54.045Z,2.5
2023-01-02T23:19:55.935Z,3.7
2023-01-02T23:22:57.880Z,3
2023-01-02T23:25:59.817Z,1.9
2023-01-02T23:29:06.897Z,2
2023-01-02T23:32:03.784Z,2.2
2023-01-02T23:35:05.747Z,2
2023-01-02T23:38:07.669Z,1.5
2023-01-02T23:41:09.664Z,1.6
2023-01-02T23:44:11.580Z,2
2023-01-02T23:47:18.825Z,2.8
2023-01-02T23:50:15.539Z,2.8
2023-01-02T23:53:17.491Z,3.1
2023-01-02T23:56:19.464Z,2.1
2023-01-02T23:59:21.386Z,1.9
